sensor_id;sensor_type;location;lat;lon;timestamp;temperature;humidity
74294;DHT22;64044;59.904;10.738;2024-03-22T00:00:43;6.70;76.60
74294;DHT22;64044;59.904;10.738;2024-03-22T00:03:09;6.80;76.50
74294;DHT22;64044;59.904;10.738;2024-03-22T00:05:35;6.80;76.50
74294;DHT22;64044;59.904;10.738;2024-03-22T00:08:00;6.80;76.80
74294;DHT22;64044;59.904;10.738;2024-03-22T00:10:26;6.90;76.80
74294;DHT22;64044;59.904;10.738;2024-03-22T00:12:52;6.90;76.60
74294;DHT22;64044;59.904;10.738;2024-03-22T00:15:17;7.00;76.60
74294;DHT22;64044;59.904;10.738;2024-03-22T00:17:45;7.00;76.60
74294;DHT22;64044;59.904;10.738;2024-03-22T00:20:11;7.10;76.70
74294;DHT22;64044;59.904;10.738;2024-03-22T00:22:36;7.10;76.70
74294;DHT22;64044;59.904;10.738;2024-03-22T00:25:02;7.10;76.70
74294;DHT22;64044;59.904;10.738;2024-03-22T00:27:28;7.20;76.70
74294;DHT22;64044;59.904;10.738;2024-03-22T00:29:54;7.20;76.80
74294;DHT22;64044;59.904;10.738;2024-03-22T00:32:19;7.20;76.80
74294;DHT22;64044;59.904;10.738;2024-03-22T00:34:45;7.20;76.80
74294;DHT22;64044;59.904;10.738;2024-03-22T00:37:11;7.30;76.80
74294;DHT22;64044;59.904;10.738;2024-03-22T00:39:37;7.30;76.80
74294;DHT22;64044;59.904;10.738;2024-03-22T00:42:03;7.30;76.70
74294;DHT22;64044;59.904;10.738;2024-03-22T00:44:28;7.40;76.80
74294;DHT22;64044;59.904;10.738;2024-03-22T00:46:54;7.30;76.70
74294;DHT22;64044;59.904;10.738;2024-03-22T00:49:20;7.40;76.70
74294;DHT22;64044;59.904;10.738;2024-03-22T00:51:45;7.40;76.80
74294;DHT22;64044;59.904;10.738;2024-03-22T00:54:12;7.40;76.70
74294;DHT22;64044;59.904;10.738;2024-03-22T00:56:38;7.40;76.70
74294;DHT22;64044;59.904;10.738;2024-03-22T00:59:04;7.50;76.70
74294;DHT22;64044;59.904;10.738;2024-03-22T01:01:30;7.50;76.60
74294;DHT22;64044;59.904;10.738;2024-03-22T01:03:55;7.60;76.70
74294;DHT22;64044;59.904;10.738;2024-03-22T01:06:21;7.50;76.50
74294;DHT22;64044;59.904;10.738;2024-03-22T01:08:50;7.60;76.60
74294;DHT22;64044;59.904;10.738;2024-03-22T01:11:17;7.60;76.50
74294;DHT22;64044;59.904;10.738;2024-03-22T01:13:43;7.60;76.50
74294;DHT22;64044;59.904;10.738;2024-03-22T01:16:09;7.60;76.50
74294;DHT22;64044;59.904;10.738;2024-03-22T01:18:35;7.70;76.60
74294;DHT22;64044;59.904;10.738;2024-03-22T01:21:01;7.70;76.50
74294;DHT22;64044;59.904;10.738;2024-03-22T01:23:27;7.70;76.50
74294;DHT22;64044;59.904;10.738;2024-03-22T01:25:53;7.70;76.50
74294;DHT22;64044;59.904;10.738;2024-03-22T01:28:18;7.70;76.50
74294;DHT22;64044;59.904;10.738;2024-03-22T01:30:44;7.70;76.50
74294;DHT22;64044;59.904;10.738;2024-03-22T01:33:10;7.80;76.50
74294;DHT22;64044;59.904;10.738;2024-03-22T01:35:35;7.80;76.40
74294;DHT22;64044;59.904;10.738;2024-03-22T01:38:01;7.80;76.50
74294;DHT22;64044;59.904;10.738;2024-03-22T01:40:27;7.80;76.30
74294;DHT22;64044;59.904;10.738;2024-03-22T01:42:55;7.80;76.30
74294;DHT22;64044;59.904;10.738;2024-03-22T01:45:21;7.80;76.40
74294;DHT22;64044;59.904;10.738;2024-03-22T01:47:51;7.90;76.50
74294;DHT22;64044;59.904;10.738;2024-03-22T01:50:20;7.90;76.50
74294;DHT22;64044;59.904;10.738;2024-03-22T01:52:46;7.90;76.60
74294;DHT22;64044;59.904;10.738;2024-03-22T01:55:12;7.90;76.40
74294;DHT22;64044;59.904;10.738;2024-03-22T01:57:39;7.90;76.30
74294;DHT22;64044;59.904;10.738;2024-03-22T02:00:06;7.90;76.20
74294;DHT22;64044;59.904;10.738;2024-03-22T02:02:34;7.90;76.30
74294;DHT22;64044;59.904;10.738;2024-03-22T02:05:10;7.90;76.40
74294;DHT22;64044;59.904;10.738;2024-03-22T02:07:36;7.90;76.70
74294;DHT22;64044;59.904;10.738;2024-03-22T02:10:02;7.90;76.60
74294;DHT22;64044;59.904;10.738;2024-03-22T02:12:28;7.90;76.60
74294;DHT22;64044;59.904;10.738;2024-03-22T02:14:57;7.90;76.50
74294;DHT22;64044;59.904;10.738;2024-03-22T02:17:23;7.90;76.60
74294;DHT22;64044;59.904;10.738;2024-03-22T02:19:49;7.90;76.70
74294;DHT22;64044;59.904;10.738;2024-03-22T02:22:14;7.90;76.70
74294;DHT22;64044;59.904;10.738;2024-03-22T02:24:40;7.90;76.70
74294;DHT22;64044;59.904;10.738;2024-03-22T02:27:06;7.90;76.50
74294;DHT22;64044;59.904;10.738;2024-03-22T02:29:31;7.90;76.40
74294;DHT22;64044;59.904;10.738;2024-03-22T02:31:57;7.90;76.30
74294;DHT22;64044;59.904;10.738;2024-03-22T02:34:23;7.90;76.40
74294;DHT22;64044;59.904;10.738;2024-03-22T02:36:49;7.90;76.30
74294;DHT22;64044;59.904;10.738;2024-03-22T02:39:15;7.90;76.40
74294;DHT22;64044;59.904;10.738;2024-03-22T02:41:41;8.00;76.50
74294;DHT22;64044;59.904;10.738;2024-03-22T02:44:06;8.00;76.50
74294;DHT22;64044;59.904;10.738;2024-03-22T02:46:32;8.00;76.30
74294;DHT22;64044;59.904;10.738;2024-03-22T02:48:58;8.00;76.40
74294;DHT22;64044;59.904;10.738;2024-03-22T02:51:23;8.00;76.30
74294;DHT22;64044;59.904;10.738;2024-03-22T02:53:49;8.00;76.30
74294;DHT22;64044;59.904;10.738;2024-03-22T02:56:15;8.00;76.30
74294;DHT22;64044;59.904;10.738;2024-03-22T02:58:41;8.00;76.30
74294;DHT22;64044;59.904;10.738;2024-03-22T03:01:06;8.00;76.10
74294;DHT22;64044;59.904;10.738;2024-03-22T03:03:32;8.00;76.10
74294;DHT22;64044;59.904;10.738;2024-03-22T03:05:58;8.00;76.00
74294;DHT22;64044;59.904;10.738;2024-03-22T03:08:23;8.00;76.10
74294;DHT22;64044;59.904;10.738;2024-03-22T03:10:49;8.00;76.00
74294;DHT22;64044;59.904;10.738;2024-03-22T03:13:15;8.00;76.00
74294;DHT22;64044;59.904;10.738;2024-03-22T03:15:41;8.00;75.90
74294;DHT22;64044;59.904;10.738;2024-03-22T03:18:06;7.90;75.80
74294;DHT22;64044;59.904;10.738;2024-03-22T03:20:32;7.90;76.00
74294;DHT22;64044;59.904;10.738;2024-03-22T03:22:58;7.90;76.10
74294;DHT22;64044;59.904;10.738;2024-03-22T03:25:25;7.90;76.00
74294;DHT22;64044;59.904;10.738;2024-03-22T03:27:52;7.90;76.20
74294;DHT22;64044;59.904;10.738;2024-03-22T03:30:17;7.90;76.30
74294;DHT22;64044;59.904;10.738;2024-03-22T03:32:43;7.90;77.00
74294;DHT22;64044;59.904;10.738;2024-03-22T03:35:09;7.90;76.20
74294;DHT22;64044;59.904;10.738;2024-03-22T03:37:34;7.90;76.40
74294;DHT22;64044;59.904;10.738;2024-03-22T03:40:00;7.90;76.30
74294;DHT22;64044;59.904;10.738;2024-03-22T03:42:26;7.90;76.40
74294;DHT22;64044;59.904;10.738;2024-03-22T03:44:52;7.90;76.40
74294;DHT22;64044;59.904;10.738;2024-03-22T03:47:17;7.90;76.50
74294;DHT22;64044;59.904;10.738;2024-03-22T03:49:45;8.00;76.60
74294;DHT22;64044;59.904;10.738;2024-03-22T03:52:11;8.00;76.70
74294;DHT22;64044;59.904;10.738;2024-03-22T03:54:37;8.00;76.60
74294;DHT22;64044;59.904;10.738;2024-03-22T03:57:03;8.00;76.60
74294;DHT22;64044;59.904;10.738;2024-03-22T03:59:29;8.00;76.60
74294;DHT22;64044;59.904;10.738;2024-03-22T04:01:55;8.10;76.50
74294;DHT22;64044;59.904;10.738;2024-03-22T04:04:20;8.10;76.50
74294;DHT22;64044;59.904;10.738;2024-03-22T04:06:46;8.10;76.30
74294;DHT22;64044;59.904;10.738;2024-03-22T04:09:12;8.10;76.30
74294;DHT22;64044;59.904;10.738;2024-03-22T04:11:38;8.20;76.20
74294;DHT22;64044;59.904;10.738;2024-03-22T04:14:04;8.20;76.10
74294;DHT22;64044;59.904;10.738;2024-03-22T04:16:31;8.20;76.10
74294;DHT22;64044;59.904;10.738;2024-03-22T04:18:57;8.20;76.00
74294;DHT22;64044;59.904;10.738;2024-03-22T04:21:22;8.30;75.90
74294;DHT22;64044;59.904;10.738;2024-03-22T04:23:48;8.20;75.80
74294;DHT22;64044;59.904;10.738;2024-03-22T04:26:15;8.30;75.90
74294;DHT22;64044;59.904;10.738;2024-03-22T04:28:40;8.30;75.90
74294;DHT22;64044;59.904;10.738;2024-03-22T04:31:07;8.30;75.80
74294;DHT22;64044;59.904;10.738;2024-03-22T04:33:35;8.30;75.80
74294;DHT22;64044;59.904;10.738;2024-03-22T04:36:01;8.30;75.70
74294;DHT22;64044;59.904;10.738;2024-03-22T04:38:27;8.30;75.70
74294;DHT22;64044;59.904;10.738;2024-03-22T04:40:53;8.30;75.60
74294;DHT22;64044;59.904;10.738;2024-03-22T04:43:21;8.40;75.60
74294;DHT22;64044;59.904;10.738;2024-03-22T04:45:47;8.40;75.40
74294;DHT22;64044;59.904;10.738;2024-03-22T04:48:14;8.30;75.20
74294;DHT22;64044;59.904;10.738;2024-03-22T04:50:40;8.30;75.10
74294;DHT22;64044;59.904;10.738;2024-03-22T04:53:06;8.30;75.10
74294;DHT22;64044;59.904;10.738;2024-03-22T04:55:32;8.30;75.20
74294;DHT22;64044;59.904;10.738;2024-03-22T04:58:01;8.20;75.10
74294;DHT22;64044;59.904;10.738;2024-03-22T05:00:29;8.30;75.20
74294;DHT22;64044;59.904;10.738;2024-03-22T05:02:55;8.20;75.10
74294;DHT22;64044;59.904;10.738;2024-03-22T05:05:21;8.20;75.20
74294;DHT22;64044;59.904;10.738;2024-03-22T05:07:47;8.20;75.30
74294;DHT22;64044;59.904;10.738;2024-03-22T05:10:13;8.20;75.40
74294;DHT22;64044;59.904;10.738;2024-03-22T05:12:39;8.20;75.30
74294;DHT22;64044;59.904;10.738;2024-03-22T05:15:06;8.20;75.30
74294;DHT22;64044;59.904;10.738;2024-03-22T05:17:32;8.20;75.20
74294;DHT22;64044;59.904;10.738;2024-03-22T05:19:59;8.20;75.10
74294;DHT22;64044;59.904;10.738;2024-03-22T05:22:24;8.20;75.00
74294;DHT22;64044;59.904;10.738;2024-03-22T05:24:50;8.20;75.00
74294;DHT22;64044;59.904;10.738;2024-03-22T05:27:17;8.20;75.00
74294;DHT22;64044;59.904;10.738;2024-03-22T05:29:43;8.20;75.00
74294;DHT22;64044;59.904;10.738;2024-03-22T05:32:09;8.20;75.00
74294;DHT22;64044;59.904;10.738;2024-03-22T05:34:34;8.10;74.80
74294;DHT22;64044;59.904;10.738;2024-03-22T05:37:01;8.10;75.60
74294;DHT22;64044;59.904;10.738;2024-03-22T05:39:27;8.10;74.90
74294;DHT22;64044;59.904;10.738;2024-03-22T05:41:52;8.10;74.90
74294;DHT22;64044;59.904;10.738;2024-03-22T05:44:21;8.10;74.90
74294;DHT22;64044;59.904;10.738;2024-03-22T05:46:46;8.10;74.90
74294;DHT22;64044;59.904;10.738;2024-03-22T05:49:12;8.10;75.00
74294;DHT22;64044;59.904;10.738;2024-03-22T05:51:38;8.00;75.70
74294;DHT22;64044;59.904;10.738;2024-03-22T05:54:04;8.10;75.10
74294;DHT22;64044;59.904;10.738;2024-03-22T05:56:30;8.10;75.20
74294;DHT22;64044;59.904;10.738;2024-03-22T05:58:55;8.00;75.20
74294;DHT22;64044;59.904;10.738;2024-03-22T06:01:21;8.00;76.00
74294;DHT22;64044;59.904;10.738;2024-03-22T06:03:47;8.10;75.30
74294;DHT22;64044;59.904;10.738;2024-03-22T06:06:12;8.10;75.20
74294;DHT22;64044;59.904;10.738;2024-03-22T06:08:38;8.00;75.20
74294;DHT22;64044;59.904;10.738;2024-03-22T06:11:06;8.10;75.20
74294;DHT22;64044;59.904;10.738;2024-03-22T06:13:33;8.10;75.20
74294;DHT22;64044;59.904;10.738;2024-03-22T06:15:58;8.10;75.30
74294;DHT22;64044;59.904;10.738;2024-03-22T06:18:24;8.10;75.20
74294;DHT22;64044;59.904;10.738;2024-03-22T06:20:50;8.10;75.20
74294;DHT22;64044;59.904;10.738;2024-03-22T06:23:15;8.10;75.30
74294;DHT22;64044;59.904;10.738;2024-03-22T06:25:41;8.10;75.30
74294;DHT22;64044;59.904;10.738;2024-03-22T06:28:07;8.10;75.20
74294;DHT22;64044;59.904;10.738;2024-03-22T06:30:33;8.10;75.20
74294;DHT22;64044;59.904;10.738;2024-03-22T06:32:58;8.10;75.20
74294;DHT22;64044;59.904;10.738;2024-03-22T06:35:24;8.10;75.20
74294;DHT22;64044;59.904;10.738;2024-03-22T06:37:49;8.10;75.20
74294;DHT22;64044;59.904;10.738;2024-03-22T06:40:16;8.10;75.30
74294;DHT22;64044;59.904;10.738;2024-03-22T06:42:42;8.20;75.50
74294;DHT22;64044;59.904;10.738;2024-03-22T06:45:08;8.20;75.60
74294;DHT22;64044;59.904;10.738;2024-03-22T06:47:33;8.20;75.70
74294;DHT22;64044;59.904;10.738;2024-03-22T06:49:59;8.20;75.60
74294;DHT22;64044;59.904;10.738;2024-03-22T06:52:29;8.20;75.50
74294;DHT22;64044;59.904;10.738;2024-03-22T06:54:55;8.30;75.40
74294;DHT22;64044;59.904;10.738;2024-03-22T06:57:21;8.30;75.30
74294;DHT22;64044;59.904;10.738;2024-03-22T06:59:46;8.30;75.20
74294;DHT22;64044;59.904;10.738;2024-03-22T07:02:12;8.30;75.20
74294;DHT22;64044;59.904;10.738;2024-03-22T07:04:39;8.40;75.40
74294;DHT22;64044;59.904;10.738;2024-03-22T07:07:05;8.40;75.50
74294;DHT22;64044;59.904;10.738;2024-03-22T07:09:33;8.50;75.50
74294;DHT22;64044;59.904;10.738;2024-03-22T07:11:59;8.50;75.50
74294;DHT22;64044;59.904;10.738;2024-03-22T07:14:24;8.60;75.50
74294;DHT22;64044;59.904;10.738;2024-03-22T07:16:51;8.60;75.30
74294;DHT22;64044;59.904;10.738;2024-03-22T07:19:19;8.70;75.30
74294;DHT22;64044;59.904;10.738;2024-03-22T07:21:46;8.80;75.10
74294;DHT22;64044;59.904;10.738;2024-03-22T07:24:12;8.80;74.80
74294;DHT22;64044;59.904;10.738;2024-03-22T07:26:38;8.90;74.60
74294;DHT22;64044;59.904;10.738;2024-03-22T07:29:03;9.00;74.20
74294;DHT22;64044;59.904;10.738;2024-03-22T07:31:29;9.00;74.00
74294;DHT22;64044;59.904;10.738;2024-03-22T07:33:55;9.10;73.70
74294;DHT22;64044;59.904;10.738;2024-03-22T07:36:21;9.20;73.70
74294;DHT22;64044;59.904;10.738;2024-03-22T07:38:47;9.20;73.40
74294;DHT22;64044;59.904;10.738;2024-03-22T07:41:14;9.20;73.20
74294;DHT22;64044;59.904;10.738;2024-03-22T07:43:40;9.30;73.10
74294;DHT22;64044;59.904;10.738;2024-03-22T07:46:06;9.30;72.80
74294;DHT22;64044;59.904;10.738;2024-03-22T07:48:32;9.30;72.50
74294;DHT22;64044;59.904;10.738;2024-03-22T07:50:58;9.30;73.10
74294;DHT22;64044;59.904;10.738;2024-03-22T07:53:24;9.30;72.20
74294;DHT22;64044;59.904;10.738;2024-03-22T07:55:50;9.30;72.10
74294;DHT22;64044;59.904;10.738;2024-03-22T07:58:15;9.30;72.00
74294;DHT22;64044;59.904;10.738;2024-03-22T08:00:41;9.30;72.10
74294;DHT22;64044;59.904;10.738;2024-03-22T08:03:08;9.30;72.20
74294;DHT22;64044;59.904;10.738;2024-03-22T08:05:39;9.30;72.40
74294;DHT22;64044;59.904;10.738;2024-03-22T08:08:05;9.30;72.50
74294;DHT22;64044;59.904;10.738;2024-03-22T08:10:31;9.30;72.50
74294;DHT22;64044;59.904;10.738;2024-03-22T08:12:56;9.30;72.50
74294;DHT22;64044;59.904;10.738;2024-03-22T08:15:22;9.40;72.50
74294;DHT22;64044;59.904;10.738;2024-03-22T08:17:48;9.40;72.50
74294;DHT22;64044;59.904;10.738;2024-03-22T08:20:13;9.40;72.40
74294;DHT22;64044;59.904;10.738;2024-03-22T08:22:39;9.50;72.40
74294;DHT22;64044;59.904;10.738;2024-03-22T08:25:05;9.50;72.10
74294;DHT22;64044;59.904;10.738;2024-03-22T08:27:33;9.50;71.80
74294;DHT22;64044;59.904;10.738;2024-03-22T08:30:00;9.60;71.70
74294;DHT22;64044;59.904;10.738;2024-03-22T08:32:26;9.60;71.50
74294;DHT22;64044;59.904;10.738;2024-03-22T08:34:51;9.70;71.40
74294;DHT22;64044;59.904;10.738;2024-03-22T08:37:17;9.70;71.30
74294;DHT22;64044;59.904;10.738;2024-03-22T08:39:43;9.80;71.20
74294;DHT22;64044;59.904;10.738;2024-03-22T08:42:09;9.90;71.10
74294;DHT22;64044;59.904;10.738;2024-03-22T08:44:35;9.90;70.80
74294;DHT22;64044;59.904;10.738;2024-03-22T08:47:01;10.00;70.40
74294;DHT22;64044;59.904;10.738;2024-03-22T08:49:27;10.00;70.00
74294;DHT22;64044;59.904;10.738;2024-03-22T08:51:52;10.10;69.80
74294;DHT22;64044;59.904;10.738;2024-03-22T08:54:18;10.10;69.60
74294;DHT22;64044;59.904;10.738;2024-03-22T08:57:09;10.10;69.40
74294;DHT22;64044;59.904;10.738;2024-03-22T08:59:35;10.10;68.60
74294;DHT22;64044;59.904;10.738;2024-03-22T09:02:00;10.10;68.90
74294;DHT22;64044;59.904;10.738;2024-03-22T09:04:26;10.10;68.80
74294;DHT22;64044;59.904;10.738;2024-03-22T09:06:52;10.10;68.70
74294;DHT22;64044;59.904;10.738;2024-03-22T09:09:17;10.10;68.60
74294;DHT22;64044;59.904;10.738;2024-03-22T09:11:43;10.10;68.70
74294;DHT22;64044;59.904;10.738;2024-03-22T09:14:09;10.00;68.70
74294;DHT22;64044;59.904;10.738;2024-03-22T09:16:35;10.00;68.10
74294;DHT22;64044;59.904;10.738;2024-03-22T09:19:01;10.00;68.70
74294;DHT22;64044;59.904;10.738;2024-03-22T09:21:26;9.90;69.50
74294;DHT22;64044;59.904;10.738;2024-03-22T09:23:52;9.90;69.60
74294;DHT22;64044;59.904;10.738;2024-03-22T09:26:18;9.90;69.00
74294;DHT22;64044;59.904;10.738;2024-03-22T09:28:46;9.80;69.20
74294;DHT22;64044;59.904;10.738;2024-03-22T09:31:12;9.90;69.30
74294;DHT22;64044;59.904;10.738;2024-03-22T09:33:38;9.80;69.20
74294;DHT22;64044;59.904;10.738;2024-03-22T09:36:04;9.80;69.20
74294;DHT22;64044;59.904;10.738;2024-03-22T09:38:29;9.80;69.30
74294;DHT22;64044;59.904;10.738;2024-03-22T09:40:55;9.80;69.50
74294;DHT22;64044;59.904;10.738;2024-03-22T09:43:21;9.80;69.60
74294;DHT22;64044;59.904;10.738;2024-03-22T09:45:50;9.80;69.70
74294;DHT22;64044;59.904;10.738;2024-03-22T09:48:19;9.80;69.80
74294;DHT22;64044;59.904;10.738;2024-03-22T09:50:48;9.80;69.90
74294;DHT22;64044;59.904;10.738;2024-03-22T09:53:18;9.90;70.00
74294;DHT22;64044;59.904;10.738;2024-03-22T09:55:46;9.90;70.00
74294;DHT22;64044;59.904;10.738;2024-03-22T09:58:12;9.90;70.00
74294;DHT22;64044;59.904;10.738;2024-03-22T10:00:38;10.00;70.10
74294;DHT22;64044;59.904;10.738;2024-03-22T10:03:04;10.00;69.90
74294;DHT22;64044;59.904;10.738;2024-03-22T10:05:31;10.10;69.80
74294;DHT22;64044;59.904;10.738;2024-03-22T10:07:57;10.10;69.50
74294;DHT22;64044;59.904;10.738;2024-03-22T10:10:27;10.20;69.40
74294;DHT22;64044;59.904;10.738;2024-03-22T10:12:53;10.30;69.20
74294;DHT22;64044;59.904;10.738;2024-03-22T10:15:18;10.40;69.10
74294;DHT22;64044;59.904;10.738;2024-03-22T10:17:45;10.40;68.80
74294;DHT22;64044;59.904;10.738;2024-03-22T10:20:13;10.50;68.70
74294;DHT22;64044;59.904;10.738;2024-03-22T10:22:58;10.50;68.40
74294;DHT22;64044;59.904;10.738;2024-03-22T10:25:25;10.60;67.80
74294;DHT22;64044;59.904;10.738;2024-03-22T10:27:53;10.70;68.40
74294;DHT22;64044;59.904;10.738;2024-03-22T10:30:18;10.80;68.50
74294;DHT22;64044;59.904;10.738;2024-03-22T10:32:44;10.80;68.30
74294;DHT22;64044;59.904;10.738;2024-03-22T10:35:14;10.90;68.20
74294;DHT22;64044;59.904;10.738;2024-03-22T10:37:40;11.00;68.10
74294;DHT22;64044;59.904;10.738;2024-03-22T10:40:07;11.20;68.40
74294;DHT22;64044;59.904;10.738;2024-03-22T10:42:37;11.30;68.50
74294;DHT22;64044;59.904;10.738;2024-03-22T10:45:04;11.40;68.20
74294;DHT22;64044;59.904;10.738;2024-03-22T10:47:32;11.60;68.20
74294;DHT22;64044;59.904;10.738;2024-03-22T10:50:18;11.70;67.80
74294;DHT22;64044;59.904;10.738;2024-03-22T10:52:48;11.90;67.80
74294;DHT22;64044;59.904;10.738;2024-03-22T10:55:24;12.00;67.50
74294;DHT22;64044;59.904;10.738;2024-03-22T10:57:54;12.20;66.50
74294;DHT22;64044;59.904;10.738;2024-03-22T11:00:30;12.40;66.50
74294;DHT22;64044;59.904;10.738;2024-03-22T11:02:56;12.50;64.50
74294;DHT22;64044;59.904;10.738;2024-03-22T11:05:22;12.60;65.90
74294;DHT22;64044;59.904;10.738;2024-03-22T11:07:48;12.70;64.70
74294;DHT22;64044;59.904;10.738;2024-03-22T11:10:14;12.90;64.90
74294;DHT22;64044;59.904;10.738;2024-03-22T11:12:41;13.00;64.60
74294;DHT22;64044;59.904;10.738;2024-03-22T11:15:09;13.30;64.60
74294;DHT22;64044;59.904;10.738;2024-03-22T11:17:36;13.60;65.00
74294;DHT22;64044;59.904;10.738;2024-03-22T11:20:02;13.90;64.70
74294;DHT22;64044;59.904;10.738;2024-03-22T11:22:28;14.40;63.20
74294;DHT22;64044;59.904;10.738;2024-03-22T11:24:54;14.80;58.80
74294;DHT22;64044;59.904;10.738;2024-03-22T11:27:19;15.10;57.40
74294;DHT22;64044;59.904;10.738;2024-03-22T11:29:45;15.40;58.30
74294;DHT22;64044;59.904;10.738;2024-03-22T11:32:12;15.70;56.60
74294;DHT22;64044;59.904;10.738;2024-03-22T11:34:39;16.00;55.30
74294;DHT22;64044;59.904;10.738;2024-03-22T11:37:06;16.30;55.10
74294;DHT22;64044;59.904;10.738;2024-03-22T11:39:37;16.60;55.20
74294;DHT22;64044;59.904;10.738;2024-03-22T11:42:07;16.90;55.00
74294;DHT22;64044;59.904;10.738;2024-03-22T11:44:34;17.30;52.60
74294;DHT22;64044;59.904;10.738;2024-03-22T11:47:01;17.60;52.70
74294;DHT22;64044;59.904;10.738;2024-03-22T11:49:28;17.90;52.40
74294;DHT22;64044;59.904;10.738;2024-03-22T11:51:56;18.10;51.20
74294;DHT22;64044;59.904;10.738;2024-03-22T11:54:23;18.30;50.50
74294;DHT22;64044;59.904;10.738;2024-03-22T11:56:51;18.40;50.10
74294;DHT22;64044;59.904;10.738;2024-03-22T11:59:20;18.50;49.50
74294;DHT22;64044;59.904;10.738;2024-03-22T12:01:47;18.50;49.20
74294;DHT22;64044;59.904;10.738;2024-03-22T12:04:13;18.50;48.90
74294;DHT22;64044;59.904;10.738;2024-03-22T12:06:43;18.40;47.70
74294;DHT22;64044;59.904;10.738;2024-03-22T12:09:09;18.30;47.00
74294;DHT22;64044;59.904;10.738;2024-03-22T12:11:38;18.20;47.70
74294;DHT22;64044;59.904;10.738;2024-03-22T12:14:03;18.10;47.60
74294;DHT22;64044;59.904;10.738;2024-03-22T12:16:29;17.90;47.30
74294;DHT22;64044;59.904;10.738;2024-03-22T12:18:55;17.80;46.50
74294;DHT22;64044;59.904;10.738;2024-03-22T12:21:20;17.70;46.70
74294;DHT22;64044;59.904;10.738;2024-03-22T12:23:46;17.70;46.60
74294;DHT22;64044;59.904;10.738;2024-03-22T12:26:12;17.90;47.80
74294;DHT22;64044;59.904;10.738;2024-03-22T12:28:37;18.10;47.60
74294;DHT22;64044;59.904;10.738;2024-03-22T12:31:04;18.30;45.60
74294;DHT22;64044;59.904;10.738;2024-03-22T12:33:30;18.50;42.80
74294;DHT22;64044;59.904;10.738;2024-03-22T12:35:56;18.60;42.90
74294;DHT22;64044;59.904;10.738;2024-03-22T12:38:22;18.60;41.80
74294;DHT22;64044;59.904;10.738;2024-03-22T12:40:47;18.50;41.10
74294;DHT22;64044;59.904;10.738;2024-03-22T12:43:14;18.30;41.40
74294;DHT22;64044;59.904;10.738;2024-03-22T12:45:40;18.10;42.10
74294;DHT22;64044;59.904;10.738;2024-03-22T12:48:06;18.10;42.90
74294;DHT22;64044;59.904;10.738;2024-03-22T12:50:32;18.20;42.20
74294;DHT22;64044;59.904;10.738;2024-03-22T12:52:59;18.40;42.40
74294;DHT22;64044;59.904;10.738;2024-03-22T12:55:25;18.60;42.30
74294;DHT22;64044;59.904;10.738;2024-03-22T12:57:51;18.80;42.40
74294;DHT22;64044;59.904;10.738;2024-03-22T13:00:17;19.10;41.60
74294;DHT22;64044;59.904;10.738;2024-03-22T13:02:46;19.30;41.70
74294;DHT22;64044;59.904;10.738;2024-03-22T13:05:12;19.60;41.00
74294;DHT22;64044;59.904;10.738;2024-03-22T13:07:38;19.80;40.30
74294;DHT22;64044;59.904;10.738;2024-03-22T13:10:05;20.10;40.60
74294;DHT22;64044;59.904;10.738;2024-03-22T13:12:31;20.30;39.40
74294;DHT22;64044;59.904;10.738;2024-03-22T13:14:57;20.50;38.20
74294;DHT22;64044;59.904;10.738;2024-03-22T13:17:23;20.70;38.70
74294;DHT22;64044;59.904;10.738;2024-03-22T13:19:49;21.00;38.50
74294;DHT22;64044;59.904;10.738;2024-03-22T13:22:15;21.20;37.70
74294;DHT22;64044;59.904;10.738;2024-03-22T13:24:47;21.50;37.60
74294;DHT22;64044;59.904;10.738;2024-03-22T13:27:14;21.60;36.90
74294;DHT22;64044;59.904;10.738;2024-03-22T13:29:40;21.90;36.40
74294;DHT22;64044;59.904;10.738;2024-03-22T13:32:06;21.90;34.90
74294;DHT22;64044;59.904;10.738;2024-03-22T13:34:38;22.10;34.50
74294;DHT22;64044;59.904;10.738;2024-03-22T13:37:04;22.20;34.40
74294;DHT22;64044;59.904;10.738;2024-03-22T13:39:31;22.30;34.60
74294;DHT22;64044;59.904;10.738;2024-03-22T13:41:57;22.40;33.70
74294;DHT22;64044;59.904;10.738;2024-03-22T13:44:23;22.60;32.90
74294;DHT22;64044;59.904;10.738;2024-03-22T13:46:50;22.60;33.60
74294;DHT22;64044;59.904;10.738;2024-03-22T13:49:17;22.60;32.50
74294;DHT22;64044;59.904;10.738;2024-03-22T13:51:43;22.60;32.20
74294;DHT22;64044;59.904;10.738;2024-03-22T13:54:10;22.60;31.50
74294;DHT22;64044;59.904;10.738;2024-03-22T13:56:35;22.50;31.10
74294;DHT22;64044;59.904;10.738;2024-03-22T13:59:03;22.40;31.40
74294;DHT22;64044;59.904;10.738;2024-03-22T14:01:31;22.30;32.50
74294;DHT22;64044;59.904;10.738;2024-03-22T14:03:57;22.30;32.10
74294;DHT22;64044;59.904;10.738;2024-03-22T14:06:23;22.40;32.70
74294;DHT22;64044;59.904;10.738;2024-03-22T14:08:48;22.50;32.80
74294;DHT22;64044;59.904;10.738;2024-03-22T14:11:14;22.70;32.60
74294;DHT22;64044;59.904;10.738;2024-03-22T14:13:40;22.80;32.10
74294;DHT22;64044;59.904;10.738;2024-03-22T14:16:06;22.80;31.20
74294;DHT22;64044;59.904;10.738;2024-03-22T14:18:33;22.70;31.10
74294;DHT22;64044;59.904;10.738;2024-03-22T14:21:01;22.70;31.30
74294;DHT22;64044;59.904;10.738;2024-03-22T14:23:28;22.70;31.60
74294;DHT22;64044;59.904;10.738;2024-03-22T14:25:55;22.80;31.50
74294;DHT22;64044;59.904;10.738;2024-03-22T14:28:21;22.60;31.00
74294;DHT22;64044;59.904;10.738;2024-03-22T14:30:47;22.40;30.40
74294;DHT22;64044;59.904;10.738;2024-03-22T14:33:13;22.20;30.30
74294;DHT22;64044;59.904;10.738;2024-03-22T14:35:39;21.80;30.80
74294;DHT22;64044;59.904;10.738;2024-03-22T14:38:04;21.60;31.50
74294;DHT22;64044;59.904;10.738;2024-03-22T14:40:30;21.40;31.60
74294;DHT22;64044;59.904;10.738;2024-03-22T14:43:01;21.20;31.10
74294;DHT22;64044;59.904;10.738;2024-03-22T14:45:26;21.10;31.60
74294;DHT22;64044;59.904;10.738;2024-03-22T14:47:52;20.90;31.20
74294;DHT22;64044;59.904;10.738;2024-03-22T14:50:18;20.60;31.70
74294;DHT22;64044;59.904;10.738;2024-03-22T14:52:43;20.30;31.70
74294;DHT22;64044;59.904;10.738;2024-03-22T14:55:09;20.00;31.90
74294;DHT22;64044;59.904;10.738;2024-03-22T14:57:35;19.50;32.00
74294;DHT22;64044;59.904;10.738;2024-03-22T15:00:01;19.20;32.40
74294;DHT22;64044;59.904;10.738;2024-03-22T15:02:27;18.80;33.20
74294;DHT22;64044;59.904;10.738;2024-03-22T15:04:53;18.50;33.50
74294;DHT22;64044;59.904;10.738;2024-03-22T15:07:18;18.20;34.40
74294;DHT22;64044;59.904;10.738;2024-03-22T15:09:44;17.90;34.10
74294;DHT22;64044;59.904;10.738;2024-03-22T15:12:10;17.70;33.80
74294;DHT22;64044;59.904;10.738;2024-03-22T15:14:36;17.60;33.10
74294;DHT22;64044;59.904;10.738;2024-03-22T15:17:02;17.60;33.30
74294;DHT22;64044;59.904;10.738;2024-03-22T15:19:27;17.60;32.30